sensor_id;sensor_type;location;lat;lon;timestamp;temperature;humidity
13426;DHT22;6785;57.918;12.530;2023-05-09T00:01:10;8.20;99.90
13426;DHT22;6785;57.918;12.530;2023-05-09T00:03:39;8.20;99.90
13426;DHT22;6785;57.918;12.530;2023-05-09T00:06:06;8.20;99.90
13426;DHT22;6785;57.918;12.530;2023-05-09T00:08:33;8.20;99.90
13426;DHT22;6785;57.918;12.530;2023-05-09T00:11:01;8.10;99.90
13426;DHT22;6785;57.918;12.530;2023-05-09T00:13:27;8.10;99.90
13426;DHT22;6785;57.918;12.530;2023-05-09T00:15:54;8.10;99.90
13426;DHT22;6785;57.918;12.530;2023-05-09T00:18:22;8.10;99.90
13426;DHT22;6785;57.918;12.530;2023-05-09T00:20:50;8.00;99.90
13426;DHT22;6785;57.918;12.530;2023-05-09T00:23:16;8.00;99.90
13426;DHT22;6785;57.918;12.530;2023-05-09T00:25:43;8.00;99.90
13426;DHT22;6785;57.918;12.530;2023-05-09T00:28:10;8.10;99.90
13426;DHT22;6785;57.918;12.530;2023-05-09T00:30:37;8.00;99.90
13426;DHT22;6785;57.918;12.530;2023-05-09T00:33:03;8.00;99.90
13426;DHT22;6785;57.918;12.530;2023-05-09T00:35:30;8.00;99.90
13426;DHT22;6785;57.918;12.530;2023-05-09T00:37:59;8.00;99.90
13426;DHT22;6785;57.918;12.530;2023-05-09T00:40:25;8.00;99.90
13426;DHT22;6785;57.918;12.530;2023-05-09T00:42:52;8.00;99.90
13426;DHT22;6785;57.918;12.530;2023-05-09T00:45:20;8.00;99.90
13426;DHT22;6785;57.918;12.530;2023-05-09T00:47:47;8.00;99.90
13426;DHT22;6785;57.918;12.530;2023-05-09T00:50:13;7.90;99.90
13426;DHT22;6785;57.918;12.530;2023-05-09T00:52:41;7.90;99.90
13426;DHT22;6785;57.918;12.530;2023-05-09T00:55:09;7.90;99.90
13426;DHT22;6785;57.918;12.530;2023-05-09T00:57:36;7.90;99.90
13426;DHT22;6785;57.918;12.530;2023-05-09T01:00:04;7.90;99.90
13426;DHT22;6785;57.918;12.530;2023-05-09T01:02:31;7.80;99.90
13426;DHT22;6785;57.918;12.530;2023-05-09T01:04:58;7.80;99.90
13426;DHT22;6785;57.918;12.530;2023-05-09T01:07:31;7.80;99.90
13426;DHT22;6785;57.918;12.530;2023-05-09T01:10:04;7.80;99.90
13426;DHT22;6785;57.918;12.530;2023-05-09T01:12:38;7.70;99.90
13426;DHT22;6785;57.918;12.530;2023-05-09T01:15:12;7.70;99.90
13426;DHT22;6785;57.918;12.530;2023-05-09T01:17:47;7.70;99.90
13426;DHT22;6785;57.918;12.530;2023-05-09T01:20:21;7.70;99.90
13426;DHT22;6785;57.918;12.530;2023-05-09T01:22:54;7.70;99.90
13426;DHT22;6785;57.918;12.530;2023-05-09T01:25:43;7.70;99.90
13426;DHT22;6785;57.918;12.530;2023-05-09T01:28:31;7.60;99.90
13426;DHT22;6785;57.918;12.530;2023-05-09T01:31:02;7.60;99.90
13426;DHT22;6785;57.918;12.530;2023-05-09T01:33:31;7.60;99.90
13426;DHT22;6785;57.918;12.530;2023-05-09T01:36:03;7.60;99.90
13426;DHT22;6785;57.918;12.530;2023-05-09T01:38:31;7.50;99.90
13426;DHT22;6785;57.918;12.530;2023-05-09T01:40:58;7.50;99.90
13426;DHT22;6785;57.918;12.530;2023-05-09T01:43:27;7.40;99.90
13426;DHT22;6785;57.918;12.530;2023-05-09T01:45:56;7.50;99.90
13426;DHT22;6785;57.918;12.530;2023-05-09T01:48:26;7.50;99.90
13426;DHT22;6785;57.918;12.530;2023-05-09T01:50:54;7.50;99.90
13426;DHT22;6785;57.918;12.530;2023-05-09T01:53:23;7.40;99.90
13426;DHT22;6785;57.918;12.530;2023-05-09T01:55:51;7.40;99.90
13426;DHT22;6785;57.918;12.530;2023-05-09T01:58:21;7.40;99.90
13426;DHT22;6785;57.918;12.530;2023-05-09T02:00:49;7.40;99.90
13426;DHT22;6785;57.918;12.530;2023-05-09T02:03:17;7.40;99.90
13426;DHT22;6785;57.918;12.530;2023-05-09T02:05:46;7.40;99.90
13426;DHT22;6785;57.918;12.530;2023-05-09T02:08:14;7.40;99.90
13426;DHT22;6785;57.918;12.530;2023-05-09T02:10:41;7.30;99.90
13426;DHT22;6785;57.918;12.530;2023-05-09T02:13:10;7.30;99.90
13426;DHT22;6785;57.918;12.530;2023-05-09T02:15:37;7.30;99.90
13426;DHT22;6785;57.918;12.530;2023-05-09T02:18:04;7.30;99.90
13426;DHT22;6785;57.918;12.530;2023-05-09T02:20:31;7.30;99.90
13426;DHT22;6785;57.918;12.530;2023-05-09T02:23:01;7.30;99.90
13426;DHT22;6785;57.918;12.530;2023-05-09T02:25:29;7.30;99.90
13426;DHT22;6785;57.918;12.530;2023-05-09T02:27:57;7.30;99.90
13426;DHT22;6785;57.918;12.530;2023-05-09T02:30:25;7.30;99.90
13426;DHT22;6785;57.918;12.530;2023-05-09T02:32:55;7.20;99.90
13426;DHT22;6785;57.918;12.530;2023-05-09T02:35:24;7.20;99.90
13426;DHT22;6785;57.918;12.530;2023-05-09T02:37:52;7.20;99.90
13426;DHT22;6785;57.918;12.530;2023-05-09T02:40:21;7.20;99.90
13426;DHT22;6785;57.918;12.530;2023-05-09T02:42:48;7.20;99.90
13426;DHT22;6785;57.918;12.530;2023-05-09T02:45:15;7.20;99.90
13426;DHT22;6785;57.918;12.530;2023-05-09T02:47:42;7.20;99.90
13426;DHT22;6785;57.918;12.530;2023-05-09T02:50:09;7.20;99.90
13426;DHT22;6785;57.918;12.530;2023-05-09T02:52:36;7.20;99.90
13426;DHT22;6785;57.918;12.530;2023-05-09T02:55:03;7.20;99.90
13426;DHT22;6785;57.918;12.530;2023-05-09T02:57:33;7.20;99.90
13426;DHT22;6785;57.918;12.530;2023-05-09T02:59:59;7.20;99.90
13426;DHT22;6785;57.918;12.530;2023-05-09T03:02:26;7.20;99.90
13426;DHT22;6785;57.918;12.530;2023-05-09T03:04:53;7.10;99.90
13426;DHT22;6785;57.918;12.530;2023-05-09T03:07:20;7.10;99.90
13426;DHT22;6785;57.918;12.530;2023-05-09T03:09:46;7.10;99.90
13426;DHT22;6785;57.918;12.530;2023-05-09T03:12:13;7.10;99.90
13426;DHT22;6785;57.918;12.530;2023-05-09T03:14:41;7.20;99.90
13426;DHT22;6785;57.918;12.530;2023-05-09T03:17:08;7.20;99.90
13426;DHT22;6785;57.918;12.530;2023-05-09T03:19:35;7.20;99.90
13426;DHT22;6785;57.918;12.530;2023-05-09T03:22:01;7.30;99.90
13426;DHT22;6785;57.918;12.530;2023-05-09T03:24:28;7.20;99.90
13426;DHT22;6785;57.918;12.530;2023-05-09T03:26:55;7.30;99.90
13426;DHT22;6785;57.918;12.530;2023-05-09T03:29:21;7.30;99.90
13426;DHT22;6785;57.918;12.530;2023-05-09T03:31:49;7.20;99.90
13426;DHT22;6785;57.918;12.530;2023-05-09T03:34:16;7.20;99.90
13426;DHT22;6785;57.918;12.530;2023-05-09T03:36:43;7.20;99.90
13426;DHT22;6785;57.918;12.530;2023-05-09T03:39:10;7.20;99.90
13426;DHT22;6785;57.918;12.530;2023-05-09T03:41:37;7.20;99.90
13426;DHT22;6785;57.918;12.530;2023-05-09T03:44:07;7.20;99.90
13426;DHT22;6785;57.918;12.530;2023-05-09T03:46:33;7.30;99.90
13426;DHT22;6785;57.918;12.530;2023-05-09T03:49:01;7.30;99.90
13426;DHT22;6785;57.918;12.530;2023-05-09T03:51:29;7.30;99.90
13426;DHT22;6785;57.918;12.530;2023-05-09T03:53:56;7.40;99.90
13426;DHT22;6785;57.918;12.530;2023-05-09T03:56:23;7.40;99.90
13426;DHT22;6785;57.918;12.530;2023-05-09T03:58:50;7.50;99.90
13426;DHT22;6785;57.918;12.530;2023-05-09T04:01:17;7.40;99.90
13426;DHT22;6785;57.918;12.530;2023-05-09T04:03:44;7.50;99.90
13426;DHT22;6785;57.918;12.530;2023-05-09T04:06:12;7.60;99.90
13426;DHT22;6785;57.918;12.530;2023-05-09T04:08:39;7.60;99.90
13426;DHT22;6785;57.918;12.530;2023-05-09T04:11:05;7.60;99.90
13426;DHT22;6785;57.918;12.530;2023-05-09T04:13:33;7.60;99.90
13426;DHT22;6785;57.918;12.530;2023-05-09T04:15:59;7.70;99.90
13426;DHT22;6785;57.918;12.530;2023-05-09T04:18:27;7.70;99.90
13426;DHT22;6785;57.918;12.530;2023-05-09T04:20:55;7.70;99.90
13426;DHT22;6785;57.918;12.530;2023-05-09T04:23:23;7.70;99.90
13426;DHT22;6785;57.918;12.530;2023-05-09T04:25:50;7.80;99.90
13426;DHT22;6785;57.918;12.530;2023-05-09T04:28:18;7.80;99.90
13426;DHT22;6785;57.918;12.530;2023-05-09T04:30:45;7.80;99.90
13426;DHT22;6785;57.918;12.530;2023-05-09T04:33:11;7.90;99.90
13426;DHT22;6785;57.918;12.530;2023-05-09T04:35:38;8.00;99.90
13426;DHT22;6785;57.918;12.530;2023-05-09T04:38:05;8.10;99.90
13426;DHT22;6785;57.918;12.530;2023-05-09T04:40:33;8.10;99.90
13426;DHT22;6785;57.918;12.530;2023-05-09T04:43:00;8.10;99.90
13426;DHT22;6785;57.918;12.530;2023-05-09T04:45:27;8.20;99.90
13426;DHT22;6785;57.918;12.530;2023-05-09T04:47:54;8.20;99.90
13426;DHT22;6785;57.918;12.530;2023-05-09T04:50:21;8.40;99.90
13426;DHT22;6785;57.918;12.530;2023-05-09T04:52:47;8.50;99.90
13426;DHT22;6785;57.918;12.530;2023-05-09T04:55:14;8.60;99.90
13426;DHT22;6785;57.918;12.530;2023-05-09T04:57:42;8.70;99.90
13426;DHT22;6785;57.918;12.530;2023-05-09T05:00:10;8.90;99.90
13426;DHT22;6785;57.918;12.530;2023-05-09T05:02:37;9.00;99.90
13426;DHT22;6785;57.918;12.530;2023-05-09T05:05:05;9.10;99.90
13426;DHT22;6785;57.918;12.530;2023-05-09T05:07:32;9.30;99.90
13426;DHT22;6785;57.918;12.530;2023-05-09T05:09:58;9.40;99.90
13426;DHT22;6785;57.918;12.530;2023-05-09T05:12:25;9.60;99.90
13426;DHT22;6785;57.918;12.530;2023-05-09T05:14:53;9.70;99.90
13426;DHT22;6785;57.918;12.530;2023-05-09T05:17:20;9.80;99.90
13426;DHT22;6785;57.918;12.530;2023-05-09T05:19:46;10.00;99.90
13426;DHT22;6785;57.918;12.530;2023-05-09T05:22:13;10.20;99.90
13426;DHT22;6785;57.918;12.530;2023-05-09T05:24:40;10.30;99.90
13426;DHT22;6785;57.918;12.530;2023-05-09T05:27:06;10.50;99.90
13426;DHT22;6785;57.918;12.530;2023-05-09T05:29:33;10.70;99.90
13426;DHT22;6785;57.918;12.530;2023-05-09T05:32:01;10.70;99.90
13426;DHT22;6785;57.918;12.530;2023-05-09T05:34:28;10.90;99.90
13426;DHT22;6785;57.918;12.530;2023-05-09T05:36:55;10.90;99.90
13426;DHT22;6785;57.918;12.530;2023-05-09T05:39:21;10.90;99.90
13426;DHT22;6785;57.918;12.530;2023-05-09T05:41:48;11.00;99.90
13426;DHT22;6785;57.918;12.530;2023-05-09T05:44:16;11.00;99.90
13426;DHT22;6785;57.918;12.530;2023-05-09T05:46:43;11.00;99.90
13426;DHT22;6785;57.918;12.530;2023-05-09T05:49:11;11.10;99.90
13426;DHT22;6785;57.918;12.530;2023-05-09T05:51:37;11.20;99.90
13426;DHT22;6785;57.918;12.530;2023-05-09T05:54:05;11.30;99.90
13426;DHT22;6785;57.918;12.530;2023-05-09T05:56:32;11.30;99.90
13426;DHT22;6785;57.918;12.530;2023-05-09T05:58:59;11.40;99.90
13426;DHT22;6785;57.918;12.530;2023-05-09T06:01:25;11.50;99.90
13426;DHT22;6785;57.918;12.530;2023-05-09T06:03:52;11.50;99.90
13426;DHT22;6785;57.918;12.530;2023-05-09T06:06:22;11.60;99.90
13426;DHT22;6785;57.918;12.530;2023-05-09T06:08:48;11.60;99.90
13426;DHT22;6785;57.918;12.530;2023-05-09T06:11:15;11.80;99.90
13426;DHT22;6785;57.918;12.530;2023-05-09T06:13:42;11.90;99.90
13426;DHT22;6785;57.918;12.530;2023-05-09T06:16:09;12.00;99.90
13426;DHT22;6785;57.918;12.530;2023-05-09T06:18:36;12.20;99.90
13426;DHT22;6785;57.918;12.530;2023-05-09T06:21:04;12.30;99.90
13426;DHT22;6785;57.918;12.530;2023-05-09T06:23:32;12.50;99.90
13426;DHT22;6785;57.918;12.530;2023-05-09T06:26:01;12.70;99.90
13426;DHT22;6785;57.918;12.530;2023-05-09T06:28:28;12.80;99.90
13426;DHT22;6785;57.918;12.530;2023-05-09T06:30:54;13.00;99.90
13426;DHT22;6785;57.918;12.530;2023-05-09T06:33:21;13.10;99.90
13426;DHT22;6785;57.918;12.530;2023-05-09T06:35:48;12.90;99.90
13426;DHT22;6785;57.918;12.530;2023-05-09T06:38:14;13.00;99.90
13426;DHT22;6785;57.918;12.530;2023-05-09T06:40:42;13.10;99.90
13426;DHT22;6785;57.918;12.530;2023-05-09T06:43:09;13.30;99.90
13426;DHT22;6785;57.918;12.530;2023-05-09T06:45:36;13.40;99.90
13426;DHT22;6785;57.918;12.530;2023-05-09T06:48:03;13.50;99.90
13426;DHT22;6785;57.918;12.530;2023-05-09T06:50:30;13.60;99.90
13426;DHT22;6785;57.918;12.530;2023-05-09T06:52:56;13.70;99.90
13426;DHT22;6785;57.918;12.530;2023-05-09T06:55:23;13.90;99.90
13426;DHT22;6785;57.918;12.530;2023-05-09T06:57:51;13.80;99.90
13426;DHT22;6785;57.918;12.530;2023-05-09T07:00:19;14.00;99.90
13426;DHT22;6785;57.918;12.530;2023-05-09T07:02:45;14.30;99.90
13426;DHT22;6785;57.918;12.530;2023-05-09T07:05:12;14.40;99.90
13426;DHT22;6785;57.918;12.530;2023-05-09T07:07:40;14.40;99.90
13426;DHT22;6785;57.918;12.530;2023-05-09T07:10:07;14.70;99.90
13426;DHT22;6785;57.918;12.530;2023-05-09T07:12:34;14.60;99.90
13426;DHT22;6785;57.918;12.530;2023-05-09T07:15:03;14.70;99.90
13426;DHT22;6785;57.918;12.530;2023-05-09T07:17:30;14.80;99.90
13426;DHT22;6785;57.918;12.530;2023-05-09T07:19:57;15.00;99.90
13426;DHT22;6785;57.918;12.530;2023-05-09T07:22:24;15.20;99.90
13426;DHT22;6785;57.918;12.530;2023-05-09T07:24:51;15.30;99.90
13426;DHT22;6785;57.918;12.530;2023-05-09T07:27:18;15.50;99.90
13426;DHT22;6785;57.918;12.530;2023-05-09T07:29:44;14.90;99.90
13426;DHT22;6785;57.918;12.530;2023-05-09T07:32:14;14.70;99.90
13426;DHT22;6785;57.918;12.530;2023-05-09T07:34:41;14.90;99.90
13426;DHT22;6785;57.918;12.530;2023-05-09T07:37:08;15.20;99.90
13426;DHT22;6785;57.918;12.530;2023-05-09T07:39:34;15.50;99.90
13426;DHT22;6785;57.918;12.530;2023-05-09T07:42:01;15.50;99.90
13426;DHT22;6785;57.918;12.530;2023-05-09T07:44:28;15.50;99.90
13426;DHT22;6785;57.918;12.530;2023-05-09T07:46:55;15.50;99.90
13426;DHT22;6785;57.918;12.530;2023-05-09T07:49:25;15.50;99.90
13426;DHT22;6785;57.918;12.530;2023-05-09T07:51:51;15.50;99.90
13426;DHT22;6785;57.918;12.530;2023-05-09T07:54:18;15.60;99.90
13426;DHT22;6785;57.918;12.530;2023-05-09T07:56:45;15.40;99.90
13426;DHT22;6785;57.918;12.530;2023-05-09T07:59:11;15.50;99.90
13426;DHT22;6785;57.918;12.530;2023-05-09T08:01:38;15.70;99.90
13426;DHT22;6785;57.918;12.530;2023-05-09T08:04:05;15.90;99.90
13426;DHT22;6785;57.918;12.530;2023-05-09T08:06:35;15.70;99.90
13426;DHT22;6785;57.918;12.530;2023-05-09T08:09:02;15.80;99.90
13426;DHT22;6785;57.918;12.530;2023-05-09T08:11:31;15.80;99.90
13426;DHT22;6785;57.918;12.530;2023-05-09T08:13:58;15.60;99.90
13426;DHT22;6785;57.918;12.530;2023-05-09T08:16:24;15.50;99.70
13426;DHT22;6785;57.918;12.530;2023-05-09T08:18:51;15.30;99.90
13426;DHT22;6785;57.918;12.530;2023-05-09T08:21:18;15.00;99.90
13426;DHT22;6785;57.918;12.530;2023-05-09T08:23:46;15.00;99.90
13426;DHT22;6785;57.918;12.530;2023-05-09T08:26:13;15.00;99.90
13426;DHT22;6785;57.918;12.530;2023-05-09T08:28:40;15.40;99.90
13426;DHT22;6785;57.918;12.530;2023-05-09T08:31:06;15.80;99.90
13426;DHT22;6785;57.918;12.530;2023-05-09T08:33:33;16.10;99.50
13426;DHT22;6785;57.918;12.530;2023-05-09T08:36:00;16.50;99.90
13426;DHT22;6785;57.918;12.530;2023-05-09T08:38:27;16.80;99.50
13426;DHT22;6785;57.918;12.530;2023-05-09T08:41:00;17.00;99.90
13426;DHT22;6785;57.918;12.530;2023-05-09T08:43:28;17.10;99.60
13426;DHT22;6785;57.918;12.530;2023-05-09T08:45:57;16.90;97.00
13426;DHT22;6785;57.918;12.530;2023-05-09T08:48:27;17.00;99.80
13426;DHT22;6785;57.918;12.530;2023-05-09T08:50:55;17.10;98.80
13426;DHT22;6785;57.918;12.530;2023-05-09T08:53:22;17.10;97.40
13426;DHT22;6785;57.918;12.530;2023-05-09T08:55:49;17.00;97.60
13426;DHT22;6785;57.918;12.530;2023-05-09T08:58:18;17.00;96.50
13426;DHT22;6785;57.918;12.530;2023-05-09T09:00:47;17.10;97.10
13426;DHT22;6785;57.918;12.530;2023-05-09T09:03:16;17.00;97.10
13426;DHT22;6785;57.918;12.530;2023-05-09T09:05:44;17.10;97.10
13426;DHT22;6785;57.918;12.530;2023-05-09T09:08:12;17.10;96.70
13426;DHT22;6785;57.918;12.530;2023-05-09T09:10:40;17.00;96.60
13426;DHT22;6785;57.918;12.530;2023-05-09T09:13:09;17.10;97.20
13426;DHT22;6785;57.918;12.530;2023-05-09T09:15:40;17.10;98.80
13426;DHT22;6785;57.918;12.530;2023-05-09T09:18:08;17.30;96.70
13426;DHT22;6785;57.918;12.530;2023-05-09T09:20:39;17.20;96.20
13426;DHT22;6785;57.918;12.530;2023-05-09T09:23:07;17.40;96.20
13426;DHT22;6785;57.918;12.530;2023-05-09T09:25:35;17.50;95.90
13426;DHT22;6785;57.918;12.530;2023-05-09T09:28:02;17.50;95.50
13426;DHT22;6785;57.918;12.530;2023-05-09T09:30:29;17.50;96.00
13426;DHT22;6785;57.918;12.530;2023-05-09T09:32:59;17.50;95.60
13426;DHT22;6785;57.918;12.530;2023-05-09T09:35:25;17.60;95.70
13426;DHT22;6785;57.918;12.530;2023-05-09T09:37:56;17.80;95.00
13426;DHT22;6785;57.918;12.530;2023-05-09T09:40:23;17.70;93.80
13426;DHT22;6785;57.918;12.530;2023-05-09T09:42:51;17.80;93.70
13426;DHT22;6785;57.918;12.530;2023-05-09T09:45:18;17.60;93.80
13426;DHT22;6785;57.918;12.530;2023-05-09T09:47:46;17.80;93.30
13426;DHT22;6785;57.918;12.530;2023-05-09T09:50:17;18.00;93.70
13426;DHT22;6785;57.918;12.530;2023-05-09T09:52:49;18.00;95.20
13426;DHT22;6785;57.918;12.530;2023-05-09T09:55:16;17.80;93.00
13426;DHT22;6785;57.918;12.530;2023-05-09T09:57:43;17.90;92.50
13426;DHT22;6785;57.918;12.530;2023-05-09T10:00:11;18.10;93.40
13426;DHT22;6785;57.918;12.530;2023-05-09T10:02:49;18.10;92.40
13426;DHT22;6785;57.918;12.530;2023-05-09T10:05:21;18.10;91.80
13426;DHT22;6785;57.918;12.530;2023-05-09T10:07:50;18.30;91.00
13426;DHT22;6785;57.918;12.530;2023-05-09T10:10:18;18.30;90.60
13426;DHT22;6785;57.918;12.530;2023-05-09T10:12:45;18.30;90.30
13426;DHT22;6785;57.918;12.530;2023-05-09T10:15:15;18.40;90.60
13426;DHT22;6785;57.918;12.530;2023-05-09T10:17:44;18.30;90.10
13426;DHT22;6785;57.918;12.530;2023-05-09T10:20:11;18.30;92.10
13426;DHT22;6785;57.918;12.530;2023-05-09T10:22:40;18.30;90.40
13426;DHT22;6785;57.918;12.530;2023-05-09T10:25:11;18.30;89.10
13426;DHT22;6785;57.918;12.530;2023-05-09T10:27:43;18.30;90.40
13426;DHT22;6785;57.918;12.530;2023-05-09T10:30:15;18.30;90.90
13426;DHT22;6785;57.918;12.530;2023-05-09T10:32:47;18.50;91.10
13426;DHT22;6785;57.918;12.530;2023-05-09T10:35:15;18.70;90.80
13426;DHT22;6785;57.918;12.530;2023-05-09T10:37:44;18.80;90.40
13426;DHT22;6785;57.918;12.530;2023-05-09T10:40:11;19.00;91.80
13426;DHT22;6785;57.918;12.530;2023-05-09T10:42:40;19.10;90.70
13426;DHT22;6785;57.918;12.530;2023-05-09T10:45:09;19.10;90.70
13426;DHT22;6785;57.918;12.530;2023-05-09T10:47:37;19.00;89.10
13426;DHT22;6785;57.918;12.530;2023-05-09T10:50:05;19.00;90.30
13426;DHT22;6785;57.918;12.530;2023-05-09T10:52:32;19.20;90.70
13426;DHT22;6785;57.918;12.530;2023-05-09T10:55:02;19.30;92.00
13426;DHT22;6785;57.918;12.530;2023-05-09T10:57:30;19.50;91.80
13426;DHT22;6785;57.918;12.530;2023-05-09T10:59:58;19.50;90.90
13426;DHT22;6785;57.918;12.530;2023-05-09T11:02:25;19.30;90.10
13426;DHT22;6785;57.918;12.530;2023-05-09T11:05:14;19.10;89.80
13426;DHT22;6785;57.918;12.530;2023-05-09T11:07:41;18.90;91.40
13426;DHT22;6785;57.918;12.530;2023-05-09T11:10:14;19.00;92.30
13426;DHT22;6785;57.918;12.530;2023-05-09T11:12:55;19.20;90.50
13426;DHT22;6785;57.918;12.530;2023-05-09T11:15:22;19.20;87.30
13426;DHT22;6785;57.918;12.530;2023-05-09T11:17:50;19.20;88.70
13426;DHT22;6785;57.918;12.530;2023-05-09T11:20:32;19.30;88.40
13426;DHT22;6785;57.918;12.530;2023-05-09T11:23:00;19.40;85.70
13426;DHT22;6785;57.918;12.530;2023-05-09T11:25:30;19.40;86.40
13426;DHT22;6785;57.918;12.530;2023-05-09T11:27:59;19.40;86.60
13426;DHT22;6785;57.918;12.530;2023-05-09T11:30:35;19.50;88.90
13426;DHT22;6785;57.918;12.530;2023-05-09T11:33:03;19.80;89.60
13426;DHT22;6785;57.918;12.530;2023-05-09T11:35:32;19.70;86.50
13426;DHT22;6785;57.918;12.530;2023-05-09T11:38:00;19.60;88.00
13426;DHT22;6785;57.918;12.530;2023-05-09T11:40:27;19.60;85.90
13426;DHT22;6785;57.918;12.530;2023-05-09T11:42:57;19.60;86.50
13426;DHT22;6785;57.918;12.530;2023-05-09T11:45:27;19.70;87.50
13426;DHT22;6785;57.918;12.530;2023-05-09T11:47:54;19.70;88.20
13426;DHT22;6785;57.918;12.530;2023-05-09T11:50:21;19.70;90.10
13426;DHT22;6785;57.918;12.530;2023-05-09T11:52:49;19.90;85.70
13426;DHT22;6785;57.918;12.530;2023-05-09T11:55:17;19.90;88.00
13426;DHT22;6785;57.918;12.530;2023-05-09T11:57:47;20.00;87.30
13426;DHT22;6785;57.918;12.530;2023-05-09T12:00:17;20.10;86.80
13426;DHT22;6785;57.918;12.530;2023-05-09T12:02:45;20.20;90.50
13426;DHT22;6785;57.918;12.530;2023-05-09T12:05:13;20.30;83.40
13426;DHT22;6785;57.918;12.530;2023-05-09T12:07:40;20.30;84.60
13426;DHT22;6785;57.918;12.530;2023-05-09T12:10:08;20.30;81.60
13426;DHT22;6785;57.918;12.530;2023-05-09T12:12:35;20.30;83.20
13426;DHT22;6785;57.918;12.530;2023-05-09T12:15:03;20.40;83.40
13426;DHT22;6785;57.918;12.530;2023-05-09T12:17:31;20.20;82.30
13426;DHT22;6785;57.918;12.530;2023-05-09T12:19:58;20.20;86.30
13426;DHT22;6785;57.918;12.530;2023-05-09T12:22:25;20.20;84.60
13426;DHT22;6785;57.918;12.530;2023-05-09T12:24:54;20.30;81.90
13426;DHT22;6785;57.918;12.530;2023-05-09T12:27:21;20.10;79.80
13426;DHT22;6785;57.918;12.530;2023-05-09T12:29:48;20.10;80.10
13426;DHT22;6785;57.918;12.530;2023-05-09T12:32:15;20.30;80.20
13426;DHT22;6785;57.918;12.530;2023-05-09T12:34:44;20.20;79.10
13426;DHT22;6785;57.918;12.530;2023-05-09T12:37:16;20.20;80.10
13426;DHT22;6785;57.918;12.530;2023-05-09T12:39:44;20.40;77.10
13426;DHT22;6785;57.918;12.530;2023-05-09T12:42:11;20.40;74.90
13426;DHT22;6785;57.918;12.530;2023-05-09T12:44:38;20.30;74.90
13426;DHT22;6785;57.918;12.530;2023-05-09T12:47:06;20.50;79.30
13426;DHT22;6785;57.918;12.530;2023-05-09T12:49:35;20.60;75.20
13426;DHT22;6785;57.918;12.530;2023-05-09T12:52:03;20.70;77.80
13426;DHT22;6785;57.918;12.530;2023-05-09T12:54:30;20.60;81.70
13426;DHT22;6785;57.918;12.530;2023-05-09T12:56:57;20.60;78.90
13426;DHT22;6785;57.918;12.530;2023-05-09T12:59:25;20.70;80.70
13426;DHT22;6785;57.918;12.530;2023-05-09T13:01:54;20.80;84.90
13426;DHT22;6785;57.918;12.530;2023-05-09T13:04:22;20.80;82.80
13426;DHT22;6785;57.918;12.530;2023-05-09T13:06:50;20.90;78.50
13426;DHT22;6785;57.918;12.530;2023-05-09T13:09:18;20.80;78.00
13426;DHT22;6785;57.918;12.530;2023-05-09T13:11:45;20.90;83.50
13426;DHT22;6785;57.918;12.530;2023-05-09T13:14:13;21.00;80.90
13426;DHT22;6785;57.918;12.530;2023-05-09T13:16:40;21.00;80.20
13426;DHT22;6785;57.918;12.530;2023-05-09T13:19:07;21.10;82.20
13426;DHT22;6785;57.918;12.530;2023-05-09T13:21:34;21.10;77.80
13426;DHT22;6785;57.918;12.530;2023-05-09T13:24:01;21.10;77.30
13426;DHT22;6785;57.918;12.530;2023-05-09T13:26:29;21.10;77.00
13426;DHT22;6785;57.918;12.530;2023-05-09T13:28:56;21.00;76.70
13426;DHT22;6785;57.918;12.530;2023-05-09T13:31:23;21.00;68.00
13426;DHT22;6785;57.918;12.530;2023-05-09T13:33:50;20.90;66.70
13426;DHT22;6785;57.918;12.530;2023-05-09T13:36:17;20.90;66.10
13426;DHT22;6785;57.918;12.530;2023-05-09T13:38:43;21.00;68.70
13426;DHT22;6785;57.918;12.530;2023-05-09T13:41:11;21.10;67.20
13426;DHT22;6785;57.918;12.530;2023-05-09T13:43:39;21.00;69.40
13426;DHT22;6785;57.918;12.530;2023-05-09T13:46:07;21.10;78.80
13426;DHT22;6785;57.918;12.530;2023-05-09T13:48:33;21.20;72.10
13426;DHT22;6785;57.918;12.530;2023-05-09T13:51:00;21.30;64.60
13426;DHT22;6785;57.918;12.530;2023-05-09T13:53:27;21.30;62.80
13426;DHT22;6785;57.918;12.530;2023-05-09T13:55:53;21.20;67.00
13426;DHT22;6785;57.918;12.530;2023-05-09T13:58:20;21.20;65.90
13426;DHT22;6785;57.918;12.530;2023-05-09T14:00:48;21.20;66.10
13426;DHT22;6785;57.918;12.530;2023-05-09T14:03:15;21.30;62.60
13426;DHT22;6785;57.918;12.530;2023-05-09T14:05:42;21.20;71.30
13426;DHT22;6785;57.918;12.530;2023-05-09T14:08:09;21.20;64.70
13426;DHT22;6785;57.918;12.530;2023-05-09T14:10:36;21.20;65.60
13426;DHT22;6785;57.918;12.530;2023-05-09T14:13:03;21.30;66.80
13426;DHT22;6785;57.918;12.530;2023-05-09T14:15:30;21.20;67.30
13426;DHT22;6785;57.918;12.530;2023-05-09T14:17:58;21.20;67.30
13426;DHT22;6785;57.918;12.530;2023-05-09T14:20:25;21.10;69.30
13426;DHT22;6785;57.918;12.530;2023-05-09T14:22:52;21.00;68.80
13426;DHT22;6785;57.918;12.530;2023-05-09T14:25:19;21.00;69.40
13426;DHT22;6785;57.918;12.530;2023-05-09T14:27:47;20.90;63.80
13426;DHT22;6785;57.918;12.530;2023-05-09T14:30:13;20.80;66.30
13426;DHT22;6785;57.918;12.530;2023-05-09T14:32:41;20.80;71.70
13426;DHT22;6785;57.918;12.530;2023-05-09T14:35:09;20.70;69.90
13426;DHT22;6785;57.918;12.530;2023-05-09T14:37:36;20.70;64.40
13426;DHT22;6785;57.918;12.530;2023-05-09T14:40:03;20.70;66.80
13426;DHT22;6785;57.918;12.530;2023-05-09T14:42:32;20.70;63.80
13426;DHT22;6785;57.918;12.530;2023-05-09T14:45:00;20.70;62.80
13426;DHT22;6785;57.918;12.530;2023-05-09T14:47:26;20.70;64.40
13426;DHT22;6785;57.918;12.530;2023-05-09T14:49:53;20.70;64.00
13426;DHT22;6785;57.918;12.530;2023-05-09T14:52:21;20.60;69.50
13426;DHT22;6785;57.918;12.530;2023-05-09T14:54:48;20.50;65.90
13426;DHT22;6785;57.918;12.530;2023-05-09T14:57:15;20.40;65.40
13426;DHT22;6785;57.918;12.530;2023-05-09T14:59:42;20.40;65.70
13426;DHT22;6785;57.918;12.530;2023-05-09T15:02:08;20.30;65.30
13426;DHT22;6785;57.918;12.530;2023-05-09T15:04:35;20.10;67.10
13426;DHT22;6785;57.918;12.530;2023-05-09T15:07:02;20.00;71.60
13426;DHT22;6785;57.918;12.530;2023-05-09T15:09:31;19.90;68.40
13426;DHT22;6785;57.918;12.530;2023-05-09T15:11:58;19.90;68.10
13426;DHT22;6785;57.918;12.530;2023-05-09T15:14:25;19.90;67.90
13426;DHT22;6785;57.918;12.530;2023-05-09T15:16:51;19.80;66.70
13426;DHT22;6785;57.918;12.530;2023-05-09T15:19:19;19.70;66.70
13426;DHT22;6785;57.918;12.530;2023-05-09T15:21:47;19.60;66.00
13426;DHT22;6785;57.918;12.530;2023-05-09T15:24:14;19.50;66.30
13426;DHT22;6785;57.918;12.530;2023-05-09T15:26:42;19.50;66.30
13426;DHT22;6785;57.918;12.530;2023-05-09T15:29:09;19.60;70.50
13426;DHT22;6785;57.918;12.530;2023-05-09T15:31:35;19.40;70.80
13426;DHT22;6785;57.918;12.530;2023-05-09T15:34:02;19.50;67.50
13426;DHT22;6785;57.918;12.530;2023-05-09T15:36:29;19.40;65.60
13426;DHT22;6785;57.918;12.530;2023-05-09T15:38:56;19.40;67.70